Time;durP1;ratioP1;P1;durP2;ratioP2;P2;SDS_P1;SDS_P2;PMS_P1;PMS_P2;Temp;Humidity;BMP_temperature;BMP_pressure;BME280_temperature;BME280_humidity;BME280_pressure;Samples;Min_cycle;Max_cycle;Signal;HPM_P1;HPM_P2
2021/10/31 00:01:15;;;;;;;55.95;26.87;;;;;;;5.19;61.41;97330.92;1680366;84;26015;-83
2021/10/31 00:03:41;;;;;;;43.48;22.93;;;;;;;5.07;61.52;97331.31;1677514;84;25839;-83
2021/10/31 00:06:08;;;;;;;44.03;23.38;;;;;;;4.95;61.72;97336.74;1677777;85;28099;-83
2021/10/31 00:08:36;;;;;;;38.98;23.87;;;;;;;4.86;61.93;97332.97;1677762;83;25757;-83
2021/10/31 00:11:03;;;;;;;40.95;23.90;;;;;;;4.82;62.12;97338.37;1687026;83;25744;-82
2021/10/31 00:13:30;;;;;;;44.33;24.50;;;;;;;4.87;62.34;97341.33;1687154;84;26724;-83
2021/10/31 00:15:57;;;;;;;40.55;22.02;;;;;;;4.88;62.38;97345.67;1687176;83;25277;-83
2021/10/31 00:18:24;;;;;;;39.67;23.45;;;;;;;4.88;62.38;97348.34;1687304;83;28078;-84
2021/10/31 00:20:51;;;;;;;38.67;22.35;;;;;;;4.80;62.40;97345.73;1687221;83;25763;-84
2021/10/31 00:23:17;;;;;;;35.85;22.30;;;;;;;4.71;62.54;97335.06;1687127;83;25959;-84
2021/10/31 00:25:44;;;;;;;44.27;21.73;;;;;;;4.69;62.67;97337.11;1687162;83;25987;-84
2021/10/31 00:28:10;;;;;;;35.92;19.90;;;;;;;4.70;62.78;97335.27;1687302;83;25995;-83
2021/10/31 00:30:37;;;;;;;38.98;21.48;;;;;;;4.64;62.85;97336.79;1687202;83;27361;-82
2021/10/31 00:33:04;;;;;;;36.23;18.10;;;;;;;4.62;63.01;97329.44;1687197;83;25903;-83
2021/10/31 00:35:30;;;;;;;34.00;18.73;;;;;;;4.50;63.02;97333.52;1687255;83;25302;-83
2021/10/31 00:37:57;;;;;;;31.40;18.27;;;;;;;4.48;63.43;97336.86;1687203;83;26774;-83
2021/10/31 00:40:24;;;;;;;31.55;18.98;;;;;;;4.44;63.38;97338.24;1687367;83;25762;-83
2021/10/31 00:42:50;;;;;;;30.12;18.37;;;;;;;4.43;63.61;97345.92;1687143;83;28450;-82
2021/10/31 00:45:17;;;;;;;52.62;26.60;;;;;;;4.47;63.86;97341.87;1690644;83;25718;-83
2021/10/31 00:47:43;;;;;;;56.88;26.17;;;;;;;4.42;63.70;97350.94;1696643;83;25747;-83
2021/10/31 00:50:11;;;;;;;56.63;26.97;;;;;;;4.40;63.75;97352.12;1690163;83;26737;-83
2021/10/31 00:52:38;;;;;;;47.58;23.62;;;;;;;4.37;63.91;97350.62;1689703;83;25748;-83
2021/10/31 00:55:05;;;;;;;40.03;21.77;;;;;;;4.27;64.10;97353.50;1687208;83;27421;-84
2021/10/31 00:57:32;;;;;;;43.20;21.50;;;;;;;4.20;64.08;97351.70;1687070;83;25716;-82
2021/10/31 00:59:59;;;;;;;39.92;22.00;;;;;;;4.18;64.08;97357.22;1687351;83;25799;-83
2021/10/31 01:02:26;;;;;;;36.05;20.62;;;;;;;4.12;64.25;97354.39;1690423;84;26858;-83
2021/10/31 01:04:57;;;;;;;35.00;18.65;;;;;;;4.11;64.33;97352.72;1687269;83;26182;-83
2021/10/31 01:07:43;;;;;;;33.02;18.40;;;;;;;4.06;64.39;97345.23;1687123;83;27520;-83
2021/10/31 01:10:24;;;;;;;39.70;19.65;;;;;;;3.98;64.57;97346.61;1682072;83;25897;-82
2021/10/31 01:13:28;;;;;;;38.30;18.85;;;;;;;3.94;64.73;97344.77;1676754;84;25807;-82
2021/10/31 01:16:33;;;;;;;39.95;19.77;;;;;;;3.91;64.88;97346.95;1677846;84;25995;-82
2021/10/31 01:19:08;;;;;;;36.20;18.60;;;;;;;3.89;65.01;97337.77;1677946;84;25784;-81
2021/10/31 01:22:01;;;;;;;42.08;18.65;;;;;;;3.79;65.06;97346.48;1671494;84;27450;-82
2021/10/31 01:25:08;;;;;;;37.33;17.32;;;;;;;3.78;65.12;97354.15;1677679;84;25903;-82
2021/10/31 01:28:04;;;;;;;32.95;17.65;;;;;;;3.77;65.16;97360.98;1677787;84;25720;-82
2021/10/31 01:31:11;;;;;;;32.30;17.23;;;;;;;3.72;65.37;97360.69;1677823;84;26049;-82
2021/10/31 01:34:00;;;;;;;33.70;18.57;;;;;;;3.53;65.49;97355.19;1693838;83;25728;-81
2021/10/31 01:37:03;;;;;;;37.50;18.27;;;;;;;3.49;65.75;97355.21;1666697;85;28135;-82
2021/10/31 01:39:46;;;;;;;33.95;17.67;;;;;;;3.46;66.06;97355.54;1677867;84;25833;-82
2021/10/31 01:42:47;;;;;;;34.78;16.37;;;;;;;3.37;66.17;97344.05;1677794;85;25336;-82
2021/10/31 01:45:25;;;;;;;31.85;17.48;;;;;;;3.42;66.28;97354.20;1676513;83;26063;-82
2021/10/31 01:48:14;;;;;;;32.73;18.15;;;;;;;3.47;66.35;97356.71;1678488;83;25766;-81
2021/10/31 01:50:45;;;;;;;27.42;16.62;;;;;;;3.52;66.24;97365.53;1680665;84;27463;-82
2021/10/31 01:53:28;;;;;;;27.67;16.57;;;;;;;3.45;66.19;97368.05;1685952;84;25347;-82
2021/10/31 01:56:06;;;;;;;29.20;17.20;;;;;;;3.36;66.29;97368.23;1668971;84;25801;-82
2021/10/31 01:58:38;;;;;;;33.13;18.35;;;;;;;3.24;66.45;97369.06;1685105;84;26420;-82
2021/10/31 02:01:07;;;;;;;31.40;17.75;;;;;;;3.22;66.56;97367.05;1686129;84;25709;-82
2021/10/31 02:03:36;;;;;;;35.10;18.73;;;;;;;3.19;66.67;97366.05;1685714;84;28320;-83
2021/10/31 02:06:06;;;;;;;30.35;17.42;;;;;;;3.22;66.71;97355.89;1685862;84;25699;-83
2021/10/31 02:08:35;;;;;;;27.60;16.45;;;;;;;3.23;66.83;97342.05;1686014;84;25695;-82
2021/10/31 02:11:03;;;;;;;29.12;16.45;;;;;;;3.21;67.12;97340.87;1687798;83;25985;-82
2021/10/31 02:13:31;;;;;;;30.70;17.85;;;;;;;3.21;67.13;97339.55;1691130;83;25776;-83
2021/10/31 02:15:59;;;;;;;32.98;17.05;;;;;;;3.23;67.17;97330.05;1692651;83;28016;-83
2021/10/31 02:18:27;;;;;;;35.38;17.90;;;;;;;3.21;67.23;97338.70;1704634;83;25745;-82
2021/10/31 02:20:57;;;;;;;29.98;17.25;;;;;;;3.17;67.27;97337.36;1689472;83;25779;-82
2021/10/31 02:23:24;;;;;;;28.57;16.02;;;;;;;3.17;67.45;97331.53;1687191;83;26074;-82
2021/10/31 02:25:51;;;;;;;31.93;16.12;;;;;;;3.20;67.52;97320.53;1687139;83;25865;-82
2021/10/31 02:28:18;;;;;;;24.12;15.18;;;;;;;3.21;67.65;97318.20;1687847;83;27458;-82
2021/10/31 02:30:45;;;;;;;27.65;16.55;;;;;;;3.15;67.85;97302.85;1687144;83;26367;-82
2021/10/31 02:33:11;;;;;;;30.25;16.35;;;;;;;3.16;68.08;97304.52;1687317;84;25820;-81
2021/10/31 02:35:39;;;;;;;24.10;14.80;;;;;;;3.18;68.27;97305.19;1687133;83;26031;-84
2021/10/31 02:38:07;;;;;;;20.23;14.03;;;;;;;3.31;68.71;97303.34;1687151;83;25813;-83
2021/10/31 02:40:36;;;;;;;20.92;13.25;;;;;;;3.62;69.22;97295.48;1688435;83;27907;-84
2021/10/31 02:43:06;;;;;;;22.98;14.40;;;;;;;3.90;69.17;97298.05;1687087;83;25718;-83
2021/10/31 02:45:33;;;;;;;25.92;15.15;;;;;;;4.15;69.17;97306.80;1687155;83;25762;-83
2021/10/31 02:48:04;;;;;;;20.12;13.22;;;;;;;4.31;68.85;97312.08;1687113;83;26551;-84
2021/10/31 02:50:39;;;;;;;19.60;13.15;;;;;;;4.43;68.67;97314.36;1687250;83;25739;-83
2021/10/31 02:53:34;;;;;;;20.15;13.25;;;;;;;4.52;68.37;97314.13;1687141;83;28215;-82
2021/10/31 02:56:24;;;;;;;23.77;14.33;;;;;;;4.60;68.34;97319.42;1687017;83;25823;-82
2021/10/31 02:58:56;;;;;;;20.82;12.55;;;;;;;4.68;68.20;97312.71;1697175;83;25827;-82
2021/10/31 03:01:25;;;;;;;18.02;13.10;;;;;;;4.76;68.21;97312.31;1719389;81;26045;-83
2021/10/31 03:03:55;;;;;;;18.27;12.93;;;;;;;4.80;68.07;97318.98;1689814;83;25310;-83
2021/10/31 03:06:23;;;;;;;20.02;13.72;;;;;;;4.83;67.93;97311.42;1687206;83;27347;-82
2021/10/31 03:08:50;;;;;;;19.23;13.72;;;;;;;4.86;67.83;97323.61;1687138;83;25867;-83
2021/10/31 03:11:17;;;;;;;20.40;13.10;;;;;;;4.87;67.73;97319.92;1686979;83;25732;-83
2021/10/31 03:13:43;;;;;;;20.85;14.58;;;;;;;4.88;67.62;97325.61;1687145;83;26300;-83
2021/10/31 03:16:12;;;;;;;25.15;15.08;;;;;;;4.85;67.63;97324.62;1687166;83;26003;-83
2021/10/31 03:18:38;;;;;;;21.20;13.75;;;;;;;4.85;67.57;97323.28;1687185;83;27385;-83
2021/10/31 03:21:05;;;;;;;24.67;15.13;;;;;;;4.81;67.56;97320.15;1687116;83;25648;-82
2021/10/31 03:23:32;;;;;;;19.98;13.68;;;;;;;4.88;67.83;97320.26;1687148;83;25755;-82
2021/10/31 03:25:58;;;;;;;19.80;14.03;;;;;;;4.86;67.75;97315.59;1687230;83;26634;-82
2021/10/31 03:28:25;;;;;;;20.77;13.83;;;;;;;4.93;67.94;97318.73;1687241;83;25740;-82
2021/10/31 03:30:52;;;;;;;21.73;13.20;;;;;;;5.02;67.98;97320.33;1687216;83;28156;-82
2021/10/31 03:33:19;;;;;;;19.65;13.95;;;;;;;5.09;67.91;97323.11;1687034;83;25788;-82
2021/10/31 03:35:45;;;;;;;18.98;13.83;;;;;;;5.17;67.96;97327.08;1687179;83;25782;-83
2021/10/31 03:38:12;;;;;;;20.60;12.85;;;;;;;5.26;67.97;97325.16;1687086;83;26198;-82
2021/10/31 03:40:38;;;;;;;19.60;12.58;;;;;;;5.35;67.95;97326.75;1687160;83;26338;-84
2021/10/31 03:43:05;;;;;;;20.25;13.10;;;;;;;5.44;68.07;97320.30;1687268;83;27379;-83
2021/10/31 03:45:32;;;;;;;20.02;12.75;;;;;;;5.52;67.85;97316.73;1714584;83;25747;-83
2021/10/31 03:47:59;;;;;;;20.40;13.98;;;;;;;5.55;67.53;97317.22;1687183;84;25316;-83
2021/10/31 03:50:25;;;;;;;19.62;13.03;;;;;;;5.60;67.41;97311.30;1687093;84;26074;-83
2021/10/31 03:52:55;;;;;;;20.92;13.25;;;;;;;5.64;67.26;97325.99;1687207;83;25740;-84
2021/10/31 03:55:20;;;;;;;20.97;12.93;;;;;;;5.67;67.25;97313.59;1687103;83;27401;-84
2021/10/31 03:57:47;;;;;;;19.02;12.40;;;;;;;5.72;67.11;97328.58;1687077;83;25258;-84
2021/10/31 04:00:15;;;;;;;19.25;12.07;;;;;;;5.75;67.05;97326.88;1687163;83;25752;-84
2021/10/31 04:02:42;;;;;;;18.23;12.82;;;;;;;5.73;66.94;97323.55;1687275;83;26046;-83
2021/10/31 04:05:11;;;;;;;17.77;11.57;;;;;;;5.74;66.87;97329.23;1686882;83;25797;-84
2021/10/31 04:07:38;;;;;;;22.10;11.78;;;;;;;5.72;66.73;97327.24;1687089;83;28319;-83
2021/10/31 04:10:06;;;;;;;20.88;13.43;;;;;;;5.71;66.51;97325.58;1686927;83;25203;-83
2021/10/31 04:12:34;;;;;;;21.45;12.70;;;;;;;5.66;66.41;97322.63;1687095;83;25902;-83
2021/10/31 04:15:01;;;;;;;23.45;12.70;;;;;;;5.61;66.38;97341.08;1687156;83;26805;-83
2021/10/31 04:17:27;;;;;;;19.75;12.23;;;;;;;5.56;66.24;97322.03;1687146;83;25760;-83
2021/10/31 04:19:54;;;;;;;18.87;12.80;;;;;;;5.51;66.21;97323.11;1687109;83;27423;-82
2021/10/31 04:22:20;;;;;;;21.23;12.82;;;;;;;5.39;66.19;97328.89;1687206;83;25791;-83
2021/10/31 04:24:47;;;;;;;23.73;12.75;;;;;;;5.36;66.25;97334.60;1687197;84;26264;-83
2021/10/31 04:27:14;;;;;;;18.05;11.83;;;;;;;5.32;66.36;97331.95;1687145;83;26048;-83
2021/10/31 04:29:41;;;;;;;17.75;11.95;;;;;;;5.28;66.41;97323.98;1687237;83;26434;-84
2021/10/31 04:32:08;;;;;;;20.10;11.97;;;;;;;5.27;66.41;97335.69;1686835;83;27421;-86
2021/10/31 04:34:35;;;;;;;16.05;10.18;;;;;;;5.25;66.40;97331.02;1686995;83;25976;-84
2021/10/31 04:37:02;;;;;;;16.52;11.15;;;;;;;5.23;66.41;97336.22;1687089;83;25737;-84
2021/10/31 04:39:29;;;;;;;15.48;10.48;;;;;;;5.20;66.36;97335.23;1687064;83;26081;-87
2021/10/31 04:42:03;;;;;;;15.85;10.90;;;;;;;5.13;66.33;97333.79;1687185;83;25714;-86
2021/10/31 04:44:24;;;;;;;18.32;11.25;;;;;;;5.02;66.35;97328.86;1688388;83;27569;-83
2021/10/31 04:46:50;;;;;;;16.05;11.38;;;;;;;4.99;66.46;97339.91;1686982;83;25792;-85
2021/10/31 04:49:17;;;;;;;17.90;11.10;;;;;;;4.98;66.46;97339.58;1687172;83;25728;-84
2021/10/31 04:51:43;;;;;;;17.35;12.00;;;;;;;4.94;66.43;97340.46;1687057;83;26047;-84
2021/10/31 04:54:10;;;;;;;20.43;12.00;;;;;;;4.91;66.38;97341.31;1686739;83;25962;-83
2021/10/31 04:56:36;;;;;;;20.20;12.23;;;;;;;4.81;66.37;97338.88;1687052;83;27434;-83
2021/10/31 04:59:03;;;;;;;17.70;12.07;;;;;;;4.68;66.37;97337.28;1686960;83;25825;-84
2021/10/31 05:01:29;;;;;;;18.20;12.85;;;;;;;4.63;66.49;97337.80;1687270;83;25893;-84
2021/10/31 05:03:56;;;;;;;19.10;13.00;;;;;;;4.60;66.56;97338.13;1687290;83;26100;-83
2021/10/31 05:06:23;;;;;;;16.97;11.65;;;;;;;4.53;66.66;97333.68;1687079;84;25802;-83
2021/10/31 05:08:49;;;;;;;20.88;12.33;;;;;;;4.39;66.68;97330.41;1687224;83;27526;-84
2021/10/31 05:11:16;;;;;;;18.37;13.03;;;;;;;4.28;66.89;97332.96;1686934;83;25864;-84
2021/10/31 05:13:42;;;;;;;18.60;12.55;;;;;;;4.21;67.15;97333.34;1687157;83;25760;-84
2021/10/31 05:16:09;;;;;;;23.57;14.00;;;;;;;4.19;67.23;97336.68;1687113;83;26435;-85
2021/10/31 05:18:36;;;;;;;22.67;13.95;;;;;;;4.14;67.33;97336.35;1687185;83;25681;-84
2021/10/31 05:21:03;;;;;;;22.17;13.58;;;;;;;4.09;67.43;97340.06;1687198;83;27441;-85
2021/10/31 05:23:30;;;;;;;21.15;13.50;;;;;;;4.06;67.59;97333.72;1687168;84;25756;-84
2021/10/31 05:25:57;;;;;;;21.95;13.48;;;;;;;4.08;67.71;97337.06;1687219;83;25681;-84
2021/10/31 05:28:25;;;;;;;22.13;13.85;;;;;;;4.02;67.67;97340.40;1687196;83;26033;-83
2021/10/31 05:30:53;;;;;;;20.68;12.53;;;;;;;3.99;67.66;97338.90;1687149;83;25799;-84
2021/10/31 05:33:21;;;;;;;21.27;13.80;;;;;;;3.99;67.69;97339.73;1687160;83;28097;-83
2021/10/31 05:35:48;;;;;;;22.62;13.58;;;;;;;4.02;67.76;97352.42;1687117;83;25823;-82
2021/10/31 05:38:18;;;;;;;22.75;13.78;;;;;;;4.02;67.80;97350.58;1687228;83;25798;-84
2021/10/31 05:40:43;;;;;;;20.80;13.70;;;;;;;3.98;67.79;97357.30;1687532;83;26630;-84
2021/10/31 05:43:09;;;;;;;19.25;13.08;;;;;;;4.01;67.85;97359.59;1687159;83;25797;-86
2021/10/31 05:45:36;;;;;;;21.62;13.65;;;;;;;3.97;67.82;97366.31;1687075;83;27443;-87
2021/10/31 05:48:03;;;;;;;28.65;15.60;;;;;;;3.89;67.90;97361.80;1687046;83;25873;-84
2021/10/31 05:50:29;;;;;;;26.82;15.83;;;;;;;3.91;68.00;97373.65;1687068;84;25866;-87
2021/10/31 05:52:56;;;;;;;25.85;15.03;;;;;;;3.91;68.04;97369.64;1687116;83;26026;-85
2021/10/31 05:55:23;;;;;;;24.82;16.23;;;;;;;3.88;67.99;97368.14;1687180;83;25696;-85
2021/10/31 05:57:50;;;;;;;26.27;15.55;;;;;;;3.88;68.03;97372.14;1687200;83;28174;-87
2021/10/31 06:00:17;;;;;;;25.75;15.85;;;;;;;3.85;68.02;97368.50;1687070;83;25791;-85
2021/10/31 06:02:45;;;;;;;23.40;15.58;;;;;;;3.84;68.01;97378.86;1686847;83;25778;-84
2021/10/31 06:05:15;;;;;;;26.55;14.90;;;;;;;3.80;68.03;97371.34;1687117;83;25982;-85
2021/10/31 06:07:42;;;;;;;24.65;15.38;;;;;;;3.78;68.02;97374.17;1687119;83;25744;-85
2021/10/31 06:10:10;;;;;;;22.80;15.45;;;;;;;3.79;68.09;97380.34;1686957;83;28457;-84
2021/10/31 06:12:44;;;;;;;25.10;15.80;;;;;;;3.77;68.17;97383.19;1679186;83;25908;-86
2021/10/31 06:15:13;;;;;;;22.35;15.10;;;;;;;3.77;68.18;97380.52;1677740;84;26524;-83
2021/10/31 06:17:40;;;;;;;25.80;15.30;;;;;;;3.78;68.22;97378.18;1677777;84;26357;-84
2021/10/31 06:20:10;;;;;;;25.62;16.42;;;;;;;3.78;68.31;97372.84;1677864;84;25331;-84
2021/10/31 06:22:37;;;;;;;26.25;16.17;;;;;;;3.78;68.35;97376.84;1677842;84;27358;-85
2021/10/31 06:25:06;;;;;;;24.35;16.05;;;;;;;3.79;68.41;97370.50;1677677;84;26533;-85
2021/10/31 06:27:32;;;;;;;25.20;16.45;;;;;;;3.83;68.47;97380.35;1681245;83;25798;-84
2021/10/31 06:29:59;;;;;;;29.32;18.80;;;;;;;3.86;68.49;97384.86;1680009;83;25960;-84
2021/10/31 06:32:26;;;;;;;30.70;19.00;;;;;;;3.86;68.48;97382.19;1680512;83;25768;-83
2021/10/31 06:34:53;;;;;;;33.60;19.30;;;;;;;3.89;68.53;97380.49;1680668;85;27360;-84
2021/10/31 06:37:19;;;;;;;27.13;18.10;;;;;;;3.94;68.57;97385.34;1677745;85;25832;-86
2021/10/31 06:39:46;;;;;;;28.55;17.10;;;;;;;3.99;68.56;97389.14;1677925;84;25645;-83
2021/10/31 06:42:13;;;;;;;29.00;17.05;;;;;;;4.03;68.60;97384.30;1677762;84;26212;-83
2021/10/31 06:44:40;;;;;;;22.30;15.30;;;;;;;4.11;68.58;97384.77;1677752;84;25693;-84
2021/10/31 06:47:06;;;;;;;24.43;14.07;;;;;;;4.16;68.58;97381.94;1677790;84;26893;-84
2021/10/31 06:49:33;;;;;;;32.05;19.48;;;;;;;4.20;68.57;97380.59;1677650;85;25717;-85
2021/10/31 06:52:00;;;;;;;34.85;22.37;;;;;;;4.28;68.55;97375.72;1677843;84;25889;-84
2021/10/31 06:54:28;;;;;;;36.25;22.48;;;;;;;4.34;68.52;97375.04;1677693;84;25961;-83
2021/10/31 06:56:56;;;;;;;30.65;20.45;;;;;;;4.38;68.49;97373.66;1677797;84;26403;-84
2021/10/31 06:59:22;;;;;;;31.48;18.75;;;;;;;4.45;68.51;97384.52;1677826;84;27438;-84
2021/10/31 07:01:49;;;;;;;26.02;16.87;;;;;;;4.50;68.50;97381.63;1677732;84;25311;-84
2021/10/31 07:04:16;;;;;;;24.55;16.00;;;;;;;4.59;68.51;97378.41;1677784;84;25730;-83
2021/10/31 07:06:42;;;;;;;24.30;15.25;;;;;;;4.67;68.54;97381.90;1677753;84;25848;-83
2021/10/31 07:09:09;;;;;;;22.80;14.65;;;;;;;4.76;68.54;97384.52;1677771;84;25765;-84
2021/10/31 07:11:36;;;;;;;24.90;16.17;;;;;;;4.87;68.50;97382.78;1679582;83;27453;-84
2021/10/31 07:14:03;;;;;;;23.95;15.80;;;;;;;4.99;68.54;97388.06;1686989;83;25827;-84
2021/10/31 07:16:30;;;;;;;25.48;16.50;;;;;;;5.07;68.41;97394.19;1687193;83;25839;-84
2021/10/31 07:18:57;;;;;;;25.65;16.25;;;;;;;5.16;68.38;97390.97;1687213;84;26064;-84
2021/10/31 07:21:23;;;;;;;23.90;15.98;;;;;;;5.25;68.32;97387.22;1687227;83;26414;-85
2021/10/31 07:23:50;;;;;;;27.60;15.75;;;;;;;5.37;68.29;97391.64;1687017;83;27275;-85
2021/10/31 07:26:16;;;;;;;25.48;16.55;;;;;;;5.48;68.23;97389.88;1686904;83;25962;-85
2021/10/31 07:28:43;;;;;;;35.68;19.90;;;;;;;5.60;68.26;97391.63;1687021;83;25769;-84
2021/10/31 07:31:14;;;;;;;35.25;20.88;;;;;;;5.75;68.23;97388.48;1687142;83;26129;-84
2021/10/31 07:33:41;;;;;;;31.85;21.95;;;;;;;5.91;68.08;97389.72;1687135;83;25277;-84
2021/10/31 07:36:07;;;;;;;36.28;21.85;;;;;;;6.08;67.88;97383.16;1687176;83;27550;-84
2021/10/31 07:38:38;;;;;;;31.05;18.73;;;;;;;6.26;67.69;97386.00;1687082;83;25847;-84
2021/10/31 07:41:02;;;;;;;32.88;18.90;;;;;;;6.43;67.54;97382.09;1687431;81;25764;-87
2021/10/31 07:43:29;;;;;;;26.93;17.32;;;;;;;6.62;67.45;97384.73;1687178;83;26467;-86
2021/10/31 07:45:55;;;;;;;32.28;20.02;;;;;;;6.81;67.37;97387.65;1687033;83;26573;-84
2021/10/31 07:48:22;;;;;;;35.30;22.37;;;;;;;7.00;67.11;97380.03;1690193;84;27997;-84
2021/10/31 07:50:49;;;;;;;33.50;21.95;;;;;;;7.23;67.12;97378.02;1690931;83;25811;-84
2021/10/31 07:53:15;;;;;;;23.98;16.90;;;;;;;7.44;66.87;97372.64;1668124;84;25760;-84
2021/10/31 07:55:47;;;;;;;24.30;14.90;;;;;;;7.67;66.62;97372.94;1669389;84;25729;-85
2021/10/31 07:58:15;;;;;;;19.77;14.25;;;;;;;7.92;66.29;97364.77;1667720;84;26404;-85
2021/10/31 08:00:39;;;;;;;21.17;15.43;;;;;;;8.15;65.98;97367.20;1667686;84;27405;-86
2021/10/31 08:03:05;;;;;;;20.77;14.98;;;;;;;8.37;65.68;97362.59;1668091;85;26578;-85
2021/10/31 08:05:32;;;;;;;22.17;15.13;;;;;;;8.59;65.51;97356.09;1668129;85;25669;-85
2021/10/31 08:07:59;;;;;;;23.15;14.85;;;;;;;8.82;65.20;97351.22;1672785;84;25915;-84
2021/10/31 08:10:26;;;;;;;19.20;14.50;;;;;;;9.05;65.02;97350.91;1678730;84;25770;-84
2021/10/31 08:12:53;;;;;;;22.58;14.00;;;;;;;9.33;64.90;97354.78;1669316;85;27472;-84
2021/10/31 08:15:20;;;;;;;23.38;13.55;;;;;;;9.62;64.80;97353.06;1682205;84;25756;-85
2021/10/31 08:17:46;;;;;;;19.27;13.10;;;;;;;9.93;64.38;97347.55;1680673;84;25705;-84
2021/10/31 08:20:13;;;;;;;19.32;12.68;;;;;;;10.26;64.23;97344.34;1680542;83;25957;-84
2021/10/31 08:22:40;;;;;;;19.25;12.65;;;;;;;10.58;64.14;97345.28;1680558;84;25755;-84
2021/10/31 08:25:07;;;;;;;17.67;11.55;;;;;;;10.91;63.99;97344.31;1680620;83;27461;-84
2021/10/31 08:27:34;;;;;;;16.42;12.25;;;;;;;11.24;63.66;97340.08;1679034;83;25778;-84
2021/10/31 08:30:01;;;;;;;20.37;13.08;;;;;;;11.60;63.27;97337.55;1680675;83;25772;-85
2021/10/31 08:32:28;;;;;;;18.77;12.20;;;;;;;11.93;62.52;97327.05;1680791;84;25984;-85
2021/10/31 08:34:55;;;;;;;14.93;10.85;;;;;;;12.23;61.75;97326.63;1680557;84;25788;-84
2021/10/31 08:37:21;;;;;;;13.48;9.20;;;;;;;12.60;61.08;97323.42;1683724;84;27421;-85
2021/10/31 08:39:48;;;;;;;12.00;8.78;;;;;;;12.93;59.95;97319.77;1682726;84;25769;-85
2021/10/31 08:42:15;;;;;;;17.42;10.05;;;;;;;13.24;59.38;97320.13;1692268;83;25842;-85
2021/10/31 08:44:42;;;;;;;13.40;10.00;;;;;;;13.56;58.86;97321.22;1693449;83;25973;-85
2021/10/31 08:47:08;;;;;;;14.35;9.00;;;;;;;13.85;58.45;97319.52;1680732;84;25709;-86
2021/10/31 08:49:35;;;;;;;178.32;115.60;;;;;;;14.13;57.64;97307.98;1680904;84;28023;-85
2021/10/31 08:52:05;;;;;;;22.52;15.23;;;;;;;14.35;57.03;97307.14;1680700;83;26287;-85
2021/10/31 08:54:31;;;;;;;10.70;8.65;;;;;;;14.59;56.55;97301.17;1680641;83;25693;-85
2021/10/31 08:56:58;;;;;;;12.10;8.38;;;;;;;14.86;55.71;97305.52;1680752;84;26061;-85
2021/10/31 08:59:24;;;;;;;8.98;7.22;;;;;;;15.12;54.91;97300.88;1680745;83;26388;-85
2021/10/31 09:01:51;;;;;;;10.43;7.60;;;;;;;15.36;54.28;97289.89;1680763;84;27352;-85
2021/10/31 09:04:17;;;;;;;12.47;7.95;;;;;;;15.53;53.06;97296.73;1680725;83;25905;-85
2021/10/31 09:06:44;;;;;;;10.98;8.30;;;;;;;15.71;51.49;97292.44;1680805;83;25769;-85
2021/10/31 09:09:11;;;;;;;10.72;7.30;;;;;;;15.80;51.55;97288.25;1680801;84;26027;-85
2021/10/31 09:11:37;;;;;;;11.35;7.80;;;;;;;16.03;51.12;97281.81;1680554;84;25744;-85
2021/10/31 09:14:04;;;;;;;10.32;7.53;;;;;;;16.25;50.73;97284.05;1680397;83;28189;-85
2021/10/31 09:16:31;;;;;;;11.95;8.35;;;;;;;16.37;49.86;97286.13;1680682;84;25669;-86
2021/10/31 09:18:57;;;;;;;12.35;8.08;;;;;;;16.57;49.65;97281.48;1680594;83;25471;-85
2021/10/31 09:21:28;;;;;;;9.95;8.13;;;;;;;16.79;49.29;97274.16;1680868;84;25927;-86
2021/10/31 09:23:52;;;;;;;8.68;7.12;;;;;;;17.00;48.93;97272.52;1680497;83;25816;-85
2021/10/31 09:26:19;;;;;;;10.68;7.78;;;;;;;17.18;48.43;97272.70;1680878;83;28247;-85
2021/10/31 09:28:47;;;;;;;8.18;6.83;;;;;;;17.39;47.97;97271.83;1680581;83;25836;-85
2021/10/31 09:31:14;;;;;;;8.28;7.33;;;;;;;17.63;47.52;97264.16;1680719;83;25790;-85
2021/10/31 09:33:41;;;;;;;8.63;6.42;;;;;;;17.81;46.67;97267.88;1680797;83;25985;-85
2021/10/31 09:36:08;;;;;;;10.82;6.65;;;;;;;17.90;46.06;97258.66;1680712;84;25846;-86
2021/10/31 09:38:35;;;;;;;9.15;6.92;;;;;;;18.03;45.69;97260.13;1680746;83;28307;-86
2021/10/31 09:41:01;;;;;;;9.73;7.45;;;;;;;18.03;44.87;97258.22;1680654;83;25830;-85
2021/10/31 09:43:31;;;;;;;10.63;7.12;;;;;;;18.09;44.40;97259.91;1680862;83;25753;-85
2021/10/31 09:45:59;;;;;;;12.37;7.30;;;;;;;18.24;44.47;97259.98;1686224;84;26062;-86
2021/10/31 09:48:32;;;;;;;12.33;8.20;;;;;;;18.40;43.94;97253.26;1680620;83;25696;-85
2021/10/31 09:50:59;;;;;;;8.58;6.83;;;;;;;18.54;43.64;97251.16;1680500;84;27452;-85
2021/10/31 09:53:28;;;;;;;8.18;6.50;;;;;;;18.72;43.38;97258.09;1680667;83;25802;-86
2021/10/31 09:55:57;;;;;;;11.20;6.83;;;;;;;18.89;42.94;97247.78;1680700;83;25795;-85
2021/10/31 09:58:28;;;;;;;8.80;7.15;;;;;;;19.08;42.71;97239.89;1680736;84;26046;-85
2021/10/31 10:00:57;;;;;;;10.05;6.67;;;;;;;19.28;42.42;97239.96;1680535;83;25688;-86
2021/10/31 10:03:36;;;;;;;8.80;6.80;;;;;;;19.47;41.80;97240.25;1680812;83;27479;-85
2021/10/31 10:06:21;;;;;;;10.43;7.17;;;;;;;19.61;40.98;97227.70;1680599;83;25323;-86
2021/10/31 10:09:07;;;;;;;7.95;6.15;;;;;;;19.64;40.58;97227.71;1680904;84;25699;-86
2021/10/31 10:11:43;;;;;;;10.40;6.03;;;;;;;19.82;40.92;97224.41;1669472;83;26363;-86
2021/10/31 10:14:17;;;;;;;7.62;6.08;;;;;;;20.09;40.34;97216.72;1669940;84;25279;-85
2021/10/31 10:16:46;;;;;;;9.58;6.03;;;;;;;20.29;40.02;97217.76;1668280;84;27424;-86
2021/10/31 10:19:33;;;;;;;11.68;6.45;;;;;;;20.41;39.45;97214.20;1668175;84;25841;-86
2021/10/31 10:22:10;;;;;;;8.45;6.12;;;;;;;20.59;39.20;97207.30;1667993;84;26780;-86
2021/10/31 10:24:56;;;;;;;9.63;6.10;;;;;;;20.75;38.60;97202.03;1650893;85;26112;-86
2021/10/31 10:27:27;;;;;;;8.80;5.95;;;;;;;20.93;38.40;97196.44;1655562;84;25704;-85
2021/10/31 10:29:56;;;;;;;8.48;6.20;;;;;;;21.06;38.17;97189.78;1668339;85;28278;-86
2021/10/31 10:32:25;;;;;;;8.25;5.80;;;;;;;21.16;37.57;97185.59;1654785;84;25786;-86
2021/10/31 10:34:58;;;;;;;8.83;6.53;;;;;;;21.29;37.41;97191.58;1668258;84;25356;-86
2021/10/31 10:37:33;;;;;;;8.03;6.33;;;;;;;21.27;37.01;97188.30;1668280;84;26091;-86
2021/10/31 10:40:11;;;;;;;11.05;6.42;;;;;;;21.42;35.80;97156.62;1667835;84;25778;-87
2021/10/31 10:42:54;;;;;;;7.70;6.25;;;;;;;21.42;35.80;97156.62;1651134;84;27380;-87
2021/10/31 10:45:25;;;;;;;10.13;7.03;;;;;;;21.63;36.24;97175.94;1668239;84;25788;-86
2021/10/31 10:47:57;;;;;;;16.42;10.32;;;;;;;22.13;35.60;97163.67;1668204;84;25736;-87
2021/10/31 10:50:27;;;;;;;;;;;;;;;22.13;35.60;97163.67;1657238;84;25999;-87
2021/10/31 10:52:55;;;;;;;8.80;6.80;;;;;;;22.28;34.48;97166.27;1668420;84;25742;-87
2021/10/31 10:55:28;;;;;;;7.58;6.55;;;;;;;22.44;35.38;97164.73;1671141;85;28004;-87
2021/10/31 10:57:59;;;;;;;9.23;6.90;;;;;;;22.69;35.29;97158.09;1666316;83;25416;-87
2021/10/31 11:00:39;;;;;;;13.83;10.13;;;;;;;22.84;34.97;97162.02;1692669;83;25812;-86
2021/10/31 11:03:17;;;;;;;12.53;8.60;;;;;;;23.07;34.45;97161.14;1692306;83;26092;-87
2021/10/31 11:05:48;;;;;;;29.18;19.05;;;;;;;23.31;34.28;97159.13;1692311;83;25755;-85
2021/10/31 11:08:23;;;;;;;18.80;13.20;;;;;;;23.56;33.90;97151.61;1692344;83;27427;-86
2021/10/31 11:10:55;;;;;;;18.48;13.08;;;;;;;23.84;33.51;97145.63;1692259;83;25845;-86
2021/10/31 11:13:25;;;;;;;;;;;;;;;24.10;33.11;97144.61;1694871;83;25799;-87
2021/10/31 11:15:54;;;;;;;11.85;9.65;;;;;;;24.09;31.68;97141.59;1690734;83;26052;-86
2021/10/31 11:18:21;;;;;;;9.50;7.00;;;;;;;24.12;32.65;97137.67;1692404;83;25684;-85
2021/10/31 11:20:48;;;;;;;9.85;6.97;;;;;;;24.21;32.56;97131.70;1692338;83;27434;-85
2021/10/31 11:23:20;;;;;;;7.40;6.50;;;;;;;24.21;31.90;97129.50;1692186;83;25792;-86
2021/10/31 11:25:50;;;;;;;7.75;6.55;;;;;;;24.27;31.58;97124.19;1692415;84;25984;-85
2021/10/31 11:28:19;;;;;;;8.25;6.10;;;;;;;24.32;31.09;97125.45;1692318;83;26156;-86
2021/10/31 11:30:50;;;;;;;11.38;6.90;;;;;;;24.43;30.87;97121.36;1677320;83;25251;-86
2021/10/31 11:33:18;;;;;;;9.15;7.08;;;;;;;24.44;30.87;97116.09;1692427;83;27585;-85
2021/10/31 11:35:44;;;;;;;42.05;29.67;;;;;;;24.45;30.84;97121.88;1690206;83;25858;-85
2021/10/31 11:38:15;;;;;;;11.75;8.73;;;;;;;24.49;30.50;97109.11;1679033;83;25752;-86